Terminal Aerodrome Forecast
Issued by NWS

Home | Current Version | Previous Version | Text Only | Print | Product List | Glossary On
Versions: 1 2 3 4 5 6 7 8 9 10 11 12 13 14 15 16 17
000
FTUS43 KAPX 292008 AAA
TAFMBL
TAF AMD
KMBL 292008Z 2920/3018 24013G22KT P6SM VCSH SCT070
     FM300000 24011KT P6SM BKN080
     FM300800 25008KT P6SM BKN050
     FM301400 25011KT P6SM SCT060
     FM301700 24014G23KT P6SM BKN050=

USA.gov is the U.S. government's official web portal to all federal, state and local government web resources and services.